Rembert, South Carolina
Current Conditions -  °F | °C
As of 7:31 AM on Monday 24 Nov 2014 (Local Time) from KSSC Reporting Station
Overcast Overcast  
Wind Chill: 66°   Ceiling: 700
Heat Index: 66°   Visibility: 10mi
Dew Point: 66°   Wind: 8mph
Humidity: 100%   Direction: 200°SSW
Pressure: 29.82"   Gusts: NA
Location:  34.1°N, 80.53°W
Report Text: KSSC 241231Z AUTO 20007KT 10SM OVC007 19/19 A2982 RMK AO2 CIG 007V009
Loading
Personal Weather Stations






























Interactive Weather Map New forecast layout! Learn more

10-Day Weather Forecast

Advertisements
Track Severe Weather on mobile